Time;durP1;ratioP1;P1;durP2;ratioP2;P2;SDS_P1;SDS_P2;PMS_P1;PMS_P2;Temp;Humidity;BMP_temperature;BMP_pressure;BME280_temperature;BME280_humidity;BME280_pressure;Samples;Min_cycle;Max_cycle;Signal;HPM_P1;HPM_P2
2021/01/17 00:03:31;;;;;;;41.10;19.75;;;;;;;-1.45;100.00;100598.44;20979374;28;20102;-72
2021/01/17 00:13:32;;;;;;;46.67;20.80;;;;;;;-1.59;100.00;100591.63;20978157;28;20721;-71
2021/01/17 00:23:32;;;;;;;42.85;20.02;;;;;;;-1.53;100.00;100571.94;20976372;28;20412;-72
2021/01/17 00:33:33;;;;;;;45.60;21.17;;;;;;;-1.50;100.00;100545.41;20981299;28;20052;-72
2021/01/17 00:43:34;;;;;;;48.47;23.48;;;;;;;-1.44;100.00;100537.69;20978787;28;20040;-71
2021/01/17 00:53:35;;;;;;;46.30;22.48;;;;;;;-1.46;100.00;100517.13;20977043;28;20419;-71
2021/01/17 01:03:36;;;;;;;48.78;21.02;;;;;;;-1.39;100.00;100511.13;20976343;28;20542;-71
2021/01/17 01:13:37;;;;;;;42.40;21.55;;;;;;;-1.46;100.00;100490.63;20976407;28;20055;-71
2021/01/17 01:23:41;;;;;;;41.53;20.13;;;;;;;-1.39;100.00;100472.63;20975922;28;20472;-72
2021/01/17 01:33:43;;;;;;;42.63;20.05;;;;;;;-1.35;100.00;100470.91;20974675;28;20130;-71
2021/01/17 01:43:45;;;;;;;50.53;23.95;;;;;;;-1.47;100.00;100463.25;20972321;28;20044;-71
2021/01/17 01:53:49;;;;;;;47.05;21.25;;;;;;;-1.45;100.00;100462.38;20989786;28;20055;-71
2021/01/17 02:03:52;;;;;;;43.53;20.60;;;;;;;-1.43;100.00;100454.69;20987887;28;20677;-70
2021/01/17 02:14:00;;;;;;;44.30;21.02;;;;;;;-1.47;100.00;100452.97;20988375;28;20044;-71
2021/01/17 02:24:09;;;;;;;48.13;22.67;;;;;;;-1.45;100.00;100453.84;20987748;28;20044;-71
2021/01/17 02:34:10;;;;;;;45.20;21.13;;;;;;;-1.57;100.00;100447.03;20987506;28;20052;-70
2021/01/17 02:44:12;;;;;;;52.50;25.63;;;;;;;-1.45;100.00;100444.41;20986198;28;20036;-71
2021/01/17 02:54:20;;;;;;;49.97;22.65;;;;;;;-1.48;100.00;100433.34;20984542;28;20086;-71
2021/01/17 03:04:34;;;;;;;50.67;23.65;;;;;;;-1.45;100.00;100425.59;20983656;28;20048;-71
2021/01/17 03:14:36;;;;;;;53.35;24.52;;;;;;;-1.47;100.00;100425.59;20984204;28;20102;-71
2021/01/17 03:24:37;;;;;;;53.53;24.73;;;;;;;-1.47;100.00;100412.75;20983457;28;20048;-71
2021/01/17 03:34:38;;;;;;;56.42;25.35;;;;;;;-1.47;100.00;100407.63;20981603;28;20573;-71
2021/01/17 03:44:39;;;;;;;49.85;22.85;;;;;;;-1.57;100.00;100412.81;20981170;28;20048;-71
2021/01/17 03:54:41;;;;;;;48.78;24.17;;;;;;;-1.49;100.00;100401.69;20980499;28;20048;-71
2021/01/17 04:04:42;;;;;;;53.70;24.35;;;;;;;-1.47;100.00;100417.91;20978848;28;20124;-72
2021/01/17 04:14:43;;;;;;;54.38;24.65;;;;;;;-1.45;100.00;100415.34;20979561;28;20049;-72
2021/01/17 04:24:44;;;;;;;48.40;23.25;;;;;;;-1.50;100.00;100415.38;20978930;28;20050;-71
2021/01/17 04:34:45;;;;;;;53.15;24.25;;;;;;;-1.47;100.00;100428.16;20977180;28;20072;-70
2021/01/17 04:44:51;;;;;;;47.22;22.33;;;;;;;-1.52;100.00;100429.91;20977573;28;20235;-70
2021/01/17 04:54:52;;;;;;;53.67;24.05;;;;;;;-1.55;100.00;100431.63;20977414;28;20098;-71
2021/01/17 05:05:02;;;;;;;47.72;21.90;;;;;;;-1.54;100.00;100435.91;20981840;28;20550;-71
2021/01/17 05:15:06;;;;;;;49.08;21.92;;;;;;;-1.52;100.00;100429.03;20988542;28;20052;-71
2021/01/17 05:25:08;;;;;;;48.33;21.35;;;;;;;-1.49;100.00;100423.91;20992221;28;20044;-71
2021/01/17 05:35:09;;;;;;;48.05;21.67;;;;;;;-1.44;100.00;100422.19;20990604;28;20049;-72
2021/01/17 05:45:15;;;;;;;48.00;21.45;;;;;;;-1.41;100.00;100433.28;20990776;28;20052;-72
2021/01/17 05:55:16;;;;;;;50.28;22.20;;;;;;;-1.44;100.00;100437.56;20989912;28;20048;-71
2021/01/17 06:05:22;;;;;;;50.38;22.38;;;;;;;-1.41;100.00;100442.69;20988690;28;20048;-71
2021/01/17 06:15:23;;;;;;;47.53;22.20;;;;;;;-1.39;100.00;100431.56;20988964;28;20598;-72
2021/01/17 06:25:30;;;;;;;48.95;21.17;;;;;;;-1.33;100.00;100436.66;20987875;28;20051;-72
2021/01/17 06:35:37;;;;;;;47.25;21.15;;;;;;;-1.33;100.00;100428.13;20985624;28;20157;-72
2021/01/17 06:45:45;;;;;;;47.13;22.52;;;;;;;-1.32;100.00;100432.34;20986133;28;20075;-72
2021/01/17 06:55:46;;;;;;;49.33;22.30;;;;;;;-1.31;100.00;100447.75;20985635;28;20745;-71
2021/01/17 07:06:05;;;;;;;46.72;20.73;;;;;;;-1.31;100.00;100452.03;20976387;28;20040;-71
2021/01/17 07:16:06;;;;;;;45.03;20.92;;;;;;;-1.23;100.00;100473.41;20987813;28;20047;-72
2021/01/17 07:26:09;;;;;;;42.35;19.65;;;;;;;-1.19;100.00;100484.50;20989571;28;20055;-71
2021/01/17 07:36:10;;;;;;;45.83;20.58;;;;;;;-1.18;100.00;100489.66;20987321;28;20052;-71
2021/01/17 07:46:16;;;;;;;44.10;19.52;;;;;;;-1.03;100.00;100501.53;20971369;28;20036;-72
2021/01/17 07:56:45;;;;;;;43.45;19.95;;;;;;;-1.12;100.00;100528.16;20986661;28;20048;-71
2021/01/17 08:06:49;;;;;;;43.40;19.27;;;;;;;-1.04;100.00;100540.94;20963211;28;20043;-71
2021/01/17 08:17:08;;;;;;;42.17;20.23;;;;;;;-0.95;100.00;100552.00;20985013;28;20041;-71
2021/01/17 08:27:09;;;;;;;44.60;19.77;;;;;;;-0.83;100.00;100560.50;20984437;28;20069;-71
2021/01/17 08:37:16;;;;;;;45.40;20.67;;;;;;;-0.77;100.00;100557.91;20982763;28;20048;-71
2021/01/17 08:47:21;;;;;;;42.40;19.52;;;;;;;-0.57;100.00;100556.06;20982506;28;20056;-71
2021/01/17 08:57:45;;;;;;;;;;;;;;;-0.46;100.00;100567.16;20983234;28;20048;-71
2021/01/17 09:07:47;;;;;;;43.63;20.88;;;;;;;-0.41;100.00;100577.41;20973945;28;19947;-71
2021/01/17 09:18:00;;;;;;;40.42;19.60;;;;;;;-0.28;100.00;100591.88;20982012;28;20083;-71
2021/01/17 09:28:01;;;;;;;39.22;19.08;;;;;;;-0.27;100.00;100598.72;20981773;28;20045;-71
2021/01/17 09:38:03;;;;;;;40.10;18.80;;;;;;;-0.05;100.00;100606.25;20980034;28;20041;-71
2021/01/17 09:48:06;;;;;;;34.65;17.75;;;;;;;0.16;100.00;100622.38;20983248;28;20041;-71
2021/01/17 09:58:09;;;;;;;34.72;17.23;;;;;;;0.10;100.00;100637.88;20985432;28;20048;-71
2021/01/17 10:08:12;;;;;;;42.35;19.48;;;;;;;0.35;100.00;100636.81;20994856;28;20040;-71
2021/01/17 10:18:13;;;;;;;41.28;20.70;;;;;;;0.77;99.46;100640.66;20994966;28;20052;-71
2021/01/17 10:28:16;;;;;;;35.75;16.65;;;;;;;0.81;98.91;100635.47;20993705;28;20048;-71
2021/01/17 10:38:19;;;;;;;33.10;16.58;;;;;;;1.08;98.88;100636.03;20992347;28;20053;-71
2021/01/17 10:48:20;;;;;;;30.90;15.82;;;;;;;1.16;98.59;100639.38;20992288;28;20057;-72
2021/01/17 10:58:24;;;;;;;33.13;16.23;;;;;;;1.62;95.54;100635.34;20986867;28;20098;-69
2021/01/17 11:08:25;;;;;;;29.53;15.33;;;;;;;1.45;97.24;100642.44;20986137;28;20505;-70
2021/01/17 11:18:27;;;;;;;30.92;16.48;;;;;;;1.56;96.87;100640.56;20989020;28;20420;-70
2021/01/17 11:28:28;;;;;;;34.70;16.70;;;;;;;1.60;96.83;100631.91;20988694;28;20430;-72
2021/01/17 11:38:42;;;;;;;33.42;16.30;;;;;;;1.29;98.49;100640.94;20969255;28;20049;-72
2021/01/17 11:48:44;;;;;;;30.15;16.25;;;;;;;1.59;98.02;100635.38;20987528;28;20061;-73
2021/01/17 11:58:45;;;;;;;32.25;16.70;;;;;;;1.59;98.35;100634.50;20986645;28;20546;-72
2021/01/17 12:09:08;;;;;;;31.80;15.82;;;;;;;1.68;97.68;100639.53;20982579;28;20040;-71
2021/01/17 12:19:11;;;;;;;28.60;14.18;;;;;;;1.62;98.79;100627.59;20985057;28;20055;-72
2021/01/17 12:29:13;;;;;;;30.02;15.55;;;;;;;1.54;100.00;100626.84;20965911;28;20041;-71
2021/01/17 12:39:17;;;;;;;30.38;15.18;;;;;;;1.46;100.00;100639.00;20985290;28;20045;-72
2021/01/17 12:49:18;;;;;;;30.63;16.38;;;;;;;1.34;100.00;100639.16;20982507;28;20416;-71
2021/01/17 12:59:19;;;;;;;28.40;14.63;;;;;;;1.52;100.00;100628.59;20965242;28;20053;-71
2021/01/17 13:09:20;;;;;;;29.10;16.13;;;;;;;1.61;100.00;100632.78;20981641;28;20040;-71
2021/01/17 13:19:21;;;;;;;33.28;17.30;;;;;;;1.69;100.00;100633.50;20975438;28;20052;-72
2021/01/17 13:29:22;;;;;;;30.42;15.75;;;;;;;1.85;100.00;100649.63;20982376;28;20053;-71
2021/01/17 13:39:23;;;;;;;34.08;17.20;;;;;;;1.76;100.00;100657.50;20994575;28;20534;-73
2021/01/17 13:49:24;;;;;;;30.00;16.25;;;;;;;1.75;100.00;100673.84;20997402;28;20044;-71
2021/01/17 13:59:25;;;;;;;28.30;14.90;;;;;;;1.78;100.00;100682.38;20995941;28;20047;-71
2021/01/17 14:09:26;;;;;;;27.23;15.13;;;;;;;1.73;100.00;100700.50;20986679;28;20049;-72
2021/01/17 14:19:27;;;;;;;27.08;14.48;;;;;;;1.77;100.00;100722.00;20995031;28;20068;-72
2021/01/17 14:29:28;;;;;;;31.30;17.45;;;;;;;1.66;100.00;100740.19;20994201;28;20048;-72
2021/01/17 14:39:29;;;;;;;35.15;20.00;;;;;;;1.52;100.00;100754.13;20996041;28;20412;-72
2021/01/17 14:49:30;;;;;;;29.90;17.92;;;;;;;1.49;100.00;100764.47;20995548;28;20044;-72
2021/01/17 14:59:31;;;;;;;36.80;19.35;;;;;;;1.40;100.00;100795.53;20988726;28;20055;-72
2021/01/17 15:09:36;;;;;;;;;;;;;;;1.36;100.00;100811.91;20988822;28;20132;-72
2021/01/17 15:19:37;;;;;;;38.67;21.23;;;;;;;1.34;100.00;100819.63;20981615;28;19921;-71
2021/01/17 15:29:38;;;;;;;32.92;18.40;;;;;;;1.28;100.00;100835.16;20969834;28;20057;-71
2021/01/17 15:39:39;;;;;;;32.67;18.55;;;;;;;1.28;100.00;100850.63;20988179;28;20045;-72
2021/01/17 15:49:41;;;;;;;33.47;18.30;;;;;;;1.34;100.00;100872.94;20989166;28;20056;-73
2021/01/17 15:59:42;;;;;;;37.05;20.40;;;;;;;1.19;100.00;100871.34;20988992;28;20044;-73
2021/01/17 16:09:43;;;;;;;37.75;21.92;;;;;;;1.19;100.00;100885.09;20984398;28;20128;-72
2021/01/17 16:19:45;;;;;;;34.65;20.15;;;;;;;1.18;100.00;100896.28;20981530;28;20048;-73
2021/01/17 16:29:46;;;;;;;40.88;24.27;;;;;;;1.20;100.00;100910.00;20983955;28;20068;-73
2021/01/17 16:39:47;;;;;;;37.75;22.52;;;;;;;1.19;100.00;100922.91;20984471;28;20048;-75
2021/01/17 16:49:50;;;;;;;32.63;19.13;;;;;;;1.18;100.00;100932.34;20983653;28;20102;-73
2021/01/17 16:59:51;;;;;;;32.78;19.23;;;;;;;1.20;100.00;100940.09;20977792;28;20086;-73
2021/01/17 17:09:56;;;;;;;32.88;17.73;;;;;;;1.24;100.00;100957.25;20990760;28;20051;-74
2021/01/17 17:20:00;;;;;;;33.53;16.48;;;;;;;1.24;100.00;100967.56;20998995;28;20048;-74
2021/01/17 17:30:01;;;;;;;29.48;16.95;;;;;;;1.20;100.00;100986.50;20998714;28;20503;-74
2021/01/17 17:40:05;;;;;;;35.65;20.60;;;;;;;1.17;100.00;100996.81;20999098;28;20467;-72
2021/01/17 17:50:07;;;;;;;30.85;16.73;;;;;;;1.16;100.00;100998.56;20997109;28;20037;-72
2021/01/17 18:00:09;;;;;;;30.05;15.52;;;;;;;1.14;100.00;101014.88;20995453;28;20098;-72
2021/01/17 18:10:10;;;;;;;36.22;19.50;;;;;;;1.23;100.00;101023.41;20995511;28;20056;-72
2021/01/17 18:20:12;;;;;;;82.40;40.17;;;;;;;1.12;100.00;101029.50;20994076;28;20044;-72
2021/01/17 18:30:14;;;;;;;36.55;22.50;;;;;;;1.12;100.00;101039.81;20993305;28;20094;-72
2021/01/17 18:40:17;;;;;;;33.17;19.38;;;;;;;1.15;100.00;101045.81;20992967;28;20447;-73
2021/01/17 18:50:18;;;;;;;39.42;19.33;;;;;;;1.20;100.00;101061.25;20996483;28;20114;-74
2021/01/17 19:00:20;;;;;;;35.83;18.92;;;;;;;1.17;100.00;101056.97;20990115;28;20045;-74
2021/01/17 19:10:22;;;;;;;37.65;19.70;;;;;;;1.20;100.00;101061.25;20990488;28;20052;-74
2021/01/17 19:20:24;;;;;;;33.67;18.45;;;;;;;1.22;100.00;101072.41;20990924;28;20175;-74
2021/01/17 19:30:25;;;;;;;33.80;18.52;;;;;;;1.20;100.00;101064.69;20991421;28;20052;-75
2021/01/17 19:40:27;;;;;;;41.92;20.45;;;;;;;1.25;100.00;101067.25;20992536;28;20056;-74
2021/01/17 19:50:28;;;;;;;36.33;18.67;;;;;;;1.08;100.00;101069.91;20991161;28;20045;-74
2021/01/17 20:00:28;;;;;;;38.72;17.25;;;;;;;0.95;100.00;101095.75;20989794;28;20066;-74
2021/01/17 20:10:29;;;;;;;44.83;20.27;;;;;;;1.02;100.00;101106.03;20990184;28;20385;-73
2021/01/17 20:20:30;;;;;;;44.08;19.50;;;;;;;1.09;100.00;101122.31;20989187;28;20401;-73
2021/01/17 20:30:31;;;;;;;44.00;20.38;;;;;;;1.10;100.00;101129.19;20987797;28;20048;-72
2021/01/17 20:40:33;;;;;;;44.95;19.10;;;;;;;1.09;100.00;101132.63;20989348;28;20102;-73
2021/01/17 20:50:34;;;;;;;39.30;18.63;;;;;;;1.18;100.00;101143.75;20989818;28;20048;-72
2021/01/17 21:00:36;;;;;;;73.10;30.05;;;;;;;1.26;100.00;101148.91;20986291;28;20044;-72
2021/01/17 21:10:37;;;;;;;62.40;24.65;;;;;;;1.25;100.00;101150.63;20986678;28;20523;-72
2021/01/17 21:20:38;;;;;;;53.40;22.92;;;;;;;1.28;100.00;101165.22;20987118;28;20056;-73
2021/01/17 21:30:39;;;;;;;45.92;20.08;;;;;;;1.26;100.00;101151.47;20985479;28;20131;-72
2021/01/17 21:40:40;;;;;;;49.38;18.67;;;;;;;1.28;100.00;101165.22;20985732;28;20044;-72
2021/01/17 21:50:41;;;;;;;48.42;20.20;;;;;;;1.27;100.00;101164.34;20985208;28;20056;-72
2021/01/17 22:00:42;;;;;;;59.30;25.85;;;;;;;1.27;100.00;101184.97;20999343;28;20090;-72
2021/01/17 22:10:43;;;;;;;42.13;18.60;;;;;;;1.29;100.00;101192.72;20998946;28;20049;-72
2021/01/17 22:20:44;;;;;;;48.28;19.90;;;;;;;1.32;100.00;101194.44;20998906;28;20053;-71
2021/01/17 22:30:45;;;;;;;43.63;18.88;;;;;;;1.44;100.00;101212.44;20997031;28;20091;-71
2021/01/17 22:40:46;;;;;;;38.78;16.98;;;;;;;1.41;100.00;101210.72;20997839;28;20044;-71
2021/01/17 22:50:48;;;;;;;35.60;16.80;;;;;;;1.31;100.00;101216.78;20996452;28;20040;-71
2021/01/17 23:00:48;;;;;;;39.92;19.85;;;;;;;1.31;100.00;101211.63;20995283;28;20056;-72
2021/01/17 23:10:49;;;;;;;41.67;18.13;;;;;;;1.43;100.00;101211.56;20954737;28;20051;-71
2021/01/17 23:20:51;;;;;;;43.75;18.27;;;;;;;1.43;100.00;101202.97;20992688;28;20052;-72
2021/01/17 23:30:52;;;;;;;43.63;17.25;;;;;;;1.58;100.00;101205.47;20991190;28;20576;-72
2021/01/17 23:40:54;;;;;;;38.63;15.90;;;;;;;1.57;100.00;101204.66;20991356;28;20096;-71
2021/01/17 23:50:55;;;;;;;40.22;17.05;;;;;;;1.57;100.00;101199.50;20990650;28;20094;-71
